Time;durP1;ratioP1;P1;durP2;ratioP2;P2;SDS_P1;SDS_P2;PMS_P1;PMS_P2;Temp;Humidity;BMP_temperature;BMP_pressure;BME280_temperature;BME280_humidity;BME280_pressure;Samples;Min_cycle;Max_cycle;Signal;HPM_P1;HPM_P2
2022/07/03 00:01:55;;;;;;;;;1.25;1.25;;;;;19.46;52.43;101759.78;5019322;28;8840;-66
2022/07/03 00:04:21;;;;;;;;;2.50;2.00;;;;;19.44;52.50;101765.44;5008855;28;8853;-66
2022/07/03 00:06:48;;;;;;;;;1.00;1.00;;;;;19.42;52.38;101750.38;5011515;28;8975;-66
2022/07/03 00:09:15;;;;;;;;;2.00;2.00;;;;;19.41;52.28;101752.28;5010833;28;8997;-65
2022/07/03 00:11:42;;;;;;;;;1.50;1.50;;;;;19.42;52.34;101745.75;5012784;28;8825;-65
2022/07/03 00:14:09;;;;;;;;;2.75;2.75;;;;;19.42;52.65;101753.94;5015247;28;8886;-65
2022/07/03 00:16:36;;;;;;;;;1.75;1.75;;;;;19.39;52.63;101750.84;5032254;28;8810;-66
2022/07/03 00:19:03;;;;;;;;;2.00;2.00;;;;;19.37;52.60;101752.97;5031394;28;8822;-66
2022/07/03 00:21:48;;;;;;;;;1.75;1.50;;;;;19.35;52.74;101744.16;5008733;28;8835;-65
2022/07/03 00:24:21;;;;;;;;;2.00;2.00;;;;;19.33;52.90;101757.22;5003840;28;8967;-66
2022/07/03 00:26:51;;;;;;;;;2.75;1.50;;;;;19.32;53.04;101752.81;5011018;28;8836;-65
2022/07/03 00:29:21;;;;;;;;;2.00;2.00;;;;;19.30;53.27;101749.50;5031720;28;8845;-65
2022/07/03 00:31:48;;;;;;;;;2.00;2.00;;;;;19.26;53.55;101752.69;5023871;28;8952;-65
2022/07/03 00:34:17;;;;;;;;;2.25;2.25;;;;;19.24;53.73;101749.34;5029417;28;8818;-66
2022/07/03 00:36:46;;;;;;;;;3.50;2.00;;;;;19.22;54.17;101754.19;5015471;28;8940;-65
2022/07/03 00:39:12;;;;;;;;;2.00;2.00;;;;;19.21;54.40;101736.16;5021489;28;8849;-66
2022/07/03 00:41:41;;;;;;;;;1.50;1.50;;;;;19.24;54.49;101751.22;5012398;28;8848;-66
2022/07/03 00:44:08;;;;;;;;;2.00;2.00;;;;;19.23;54.73;101744.09;5012076;28;8856;-65
2022/07/03 00:46:38;;;;;;;;;1.00;1.00;;;;;19.21;55.03;101744.34;5011493;28;8844;-66
2022/07/03 00:49:08;;;;;;;;;3.50;2.75;;;;;19.20;54.89;101739.97;4995195;28;8839;-66
2022/07/03 00:51:37;;;;;;;;;2.00;2.00;;;;;19.17;55.38;101740.41;5011251;28;9542;-66
2022/07/03 00:54:04;;;;;;;;;2.25;2.25;;;;;19.14;55.55;101735.41;5020172;28;8837;-67
2022/07/03 00:56:31;;;;;;;;;2.75;1.75;;;;;19.11;55.56;101744.03;4997261;28;8917;-62
2022/07/03 00:59:00;;;;;;;;;2.00;2.00;;;;;19.10;55.49;101747.84;5008031;28;8825;-67
2022/07/03 01:01:34;;;;;;;;;2.50;1.75;;;;;19.07;55.54;101745.56;5013712;28;8860;-67
2022/07/03 01:04:10;;;;;;;;;2.00;2.00;;;;;19.05;55.40;101739.53;5016678;28;8937;-67
2022/07/03 01:06:51;;;;;;;;;2.25;2.25;;;;;19.03;55.55;101742.44;5006097;28;8851;-67
2022/07/03 01:09:29;;;;;;;;;1.50;1.25;;;;;19.02;55.64;101745.44;5010869;28;8840;-67
2022/07/03 01:12:03;;;;;;;;;1.50;1.50;;;;;19.03;55.40;101742.44;5022963;28;8927;-67
2022/07/03 01:14:49;;;;;;;;;2.00;2.00;;;;;19.04;55.47;101737.84;4999633;28;8836;-67
2022/07/03 01:17:31;;;;;;;;;2.00;2.00;;;;;19.04;55.10;101737.84;5006649;28;8843;-66
2022/07/03 01:20:02;;;;;;;;;4.00;2.25;;;;;19.03;55.36;101734.28;5021204;28;8834;-65
2022/07/03 01:22:36;;;;;;;;;1.00;1.00;;;;;19.04;55.48;101732.41;5018963;28;8868;-65
2022/07/03 01:25:02;;;;;;;;;3.00;3.00;;;;;19.03;55.34;101723.34;5017883;28;8821;-66
2022/07/03 01:27:43;;;;;;;;;1.50;1.50;;;;;19.03;55.18;101726.09;5011058;28;8836;-65
2022/07/03 01:30:11;;;;;;;;;4.00;4.00;;;;;19.04;55.20;101726.94;5011843;28;8852;-65
2022/07/03 01:32:41;;;;;;;;;4.00;4.00;;;;;19.06;55.06;101737.63;5006048;28;8950;-65
2022/07/03 01:35:11;;;;;;;;;3.00;3.00;;;;;19.06;55.28;101741.19;5015167;28;8870;-65
2022/07/03 01:37:40;;;;;;;;;3.67;3.67;;;;;19.07;55.64;101731.09;5004276;28;8851;-65
2022/07/03 01:40:07;;;;;;;;;2.33;1.33;;;;;19.09;55.56;101720.78;4999313;28;9646;-66
2022/07/03 01:42:40;;;;;;;;;1.25;1.25;;;;;19.11;55.45;101727.66;5007565;28;9012;-66
2022/07/03 01:45:09;;;;;;;;;2.75;1.75;;;;;19.12;55.37;101721.16;5000791;28;8906;-65
2022/07/03 01:47:39;;;;;;;;;2.00;2.00;;;;;19.11;55.16;101722.22;5012300;28;8826;-66
2022/07/03 01:50:07;;;;;;;;;2.25;2.25;;;;;19.12;55.32;101725.78;5019546;28;8864;-66
2022/07/03 01:52:37;;;;;;;;;1.75;1.75;;;;;19.11;54.96;101715.91;5009583;28;8824;-66
2022/07/03 01:55:14;;;;;;;;;2.00;2.00;;;;;19.09;55.11;101702.53;5009938;28;8817;-65
2022/07/03 01:57:46;;;;;;;;;1.00;1.00;;;;;19.10;54.68;101715.09;5019163;28;8849;-66
2022/07/03 02:00:16;;;;;;;;;2.25;2.00;;;;;19.12;54.70;101717.59;5015666;28;8926;-65
2022/07/03 02:02:52;;;;;;;;;2.00;2.00;;;;;19.11;54.74;101714.03;5015123;28;9543;-66
2022/07/03 02:05:37;;;;;;;;;2.00;2.00;;;;;19.06;54.74;101713.88;5006301;28;8987;-66
2022/07/03 02:08:22;;;;;;;;;1.75;1.75;;;;;19.03;55.02;101709.72;5008088;28;8832;-65
2022/07/03 02:11:20;;;;;;;;;2.50;2.00;;;;;19.04;55.00;101718.75;5008995;28;8841;-65
2022/07/03 02:13:52;;;;;;;;;4.75;3.25;;;;;19.00;54.89;101715.66;5014028;28;8957;-65
2022/07/03 02:16:21;;;;;;;;;3.25;3.25;;;;;19.00;55.26;101721.09;5010396;28;8935;-65
2022/07/03 02:19:14;;;;;;;;;2.33;2.33;;;;;19.00;55.11;101710.19;5002686;28;8816;-66
2022/07/03 02:21:48;;;;;;;;;4.25;4.25;;;;;18.98;55.17;101706.00;4991279;28;8940;-64
2022/07/03 02:24:27;;;;;;;;;4.00;3.75;;;;;18.95;55.48;101710.03;4998096;28;8926;-65
2022/07/03 02:27:04;;;;;;;;;6.75;5.50;;;;;18.94;55.49;101710.25;5005893;28;9516;-65
2022/07/03 02:29:35;;;;;;;;;3.75;3.75;;;;;18.93;55.70;101712.16;5016296;28;8994;-67
2022/07/03 02:32:10;;;;;;;;;7.00;3.25;;;;;18.94;55.83;101710.25;5014397;28;8856;-65
2022/07/03 02:34:38;;;;;;;;;4.25;4.25;;;;;18.93;55.81;101711.31;4998588;28;8848;-64
2022/07/03 02:37:15;;;;;;;;;4.50;4.50;;;;;18.91;55.82;101713.44;5009145;28;8833;-66
2022/07/03 02:39:48;;;;;;;;;3.50;3.50;;;;;18.91;56.07;101713.44;5009860;28;8812;-64
2022/07/03 02:42:27;;;;;;;;;6.00;6.00;;;;;18.92;55.79;101712.38;5008288;28;8833;-65
2022/07/03 02:44:59;;;;;;;;;6.50;4.25;;;;;18.91;55.84;101697.06;4991836;28;8910;-65
2022/07/03 02:47:46;;;;;;;;;3.75;3.75;;;;;18.86;55.89;101688.75;4997065;28;8829;-65
2022/07/03 02:50:20;;;;;;;;;3.25;3.25;;;;;18.80;56.28;101698.69;5001501;28;8836;-64
2022/07/03 02:52:56;;;;;;;;;3.00;2.25;;;;;18.81;56.37;101699.50;5010092;28;8856;-65
2022/07/03 02:55:44;;;;;;;;;6.00;4.25;;;;;18.82;56.29;101695.72;5008578;28;8929;-65
2022/07/03 02:58:26;;;;;;;;;5.00;5.00;;;;;18.81;56.10;101696.78;5015697;28;8848;-66
2022/07/03 03:00:58;;;;;;;;;7.50;5.00;;;;;18.78;56.35;101685.25;5003027;28;8989;-65
2022/07/03 03:03:30;;;;;;;;;6.00;4.75;;;;;18.81;56.30;101699.50;4991102;28;8982;-65
2022/07/03 03:06:02;;;;;;;;;4.00;4.00;;;;;18.82;56.17;101712.09;5006363;28;8840;-65
2022/07/03 03:08:41;;;;;;;;;7.00;4.00;;;;;18.80;56.40;101706.88;5006385;28;8948;-68
2022/07/03 03:11:22;;;;;;;;;4.50;4.00;;;;;18.77;56.70;101705.41;5011091;28;8982;-65
2022/07/03 03:13:50;;;;;;;;;4.25;4.25;;;;;18.81;56.64;101699.50;5005138;28;8834;-65
2022/07/03 03:16:17;;;;;;;;;2.00;2.00;;;;;18.81;56.58;101702.25;5009727;28;8824;-66
2022/07/03 03:18:45;;;;;;;;;4.00;4.00;;;;;18.78;56.96;101709.81;5009225;28;8849;-66
2022/07/03 03:21:17;;;;;;;;;3.75;3.00;;;;;18.78;56.79;101712.53;5008018;28;9663;-66
2022/07/03 03:23:51;;;;;;;;;5.67;4.00;;;;;18.76;56.90;101702.94;4997088;28;8817;-65
2022/07/03 03:26:31;;;;;;;;;5.00;5.00;;;;;18.76;57.50;101705.66;5017193;28;9136;-66
2022/07/03 03:28:59;;;;;;;;;4.00;3.00;;;;;18.75;57.17;101693.88;5005165;28;8870;-67
2022/07/03 03:31:26;;;;;;;;;3.00;3.00;;;;;18.73;57.13;101690.56;5000067;28;9587;-66
2022/07/03 03:33:55;;;;;;;;;3.00;3.00;;;;;18.71;57.46;101679.03;5006905;28;8935;-66
2022/07/03 03:36:21;;;;;;;;;4.00;4.00;;;;;18.73;57.49;101693.28;5016897;28;8960;-66
2022/07/03 03:38:49;;;;;;;;;5.33;5.33;;;;;18.70;57.43;101706.56;5008610;28;9641;-66
2022/07/03 03:41:15;;;;;;;;;3.00;3.00;;;;;18.67;57.76;101705.06;5019246;28;8910;-66
2022/07/03 03:43:44;;;;;;;;;4.00;4.00;;;;;18.65;57.62;101704.47;5007172;28;8821;-66
2022/07/03 03:46:10;;;;;;;;;4.00;4.00;;;;;18.62;58.47;101696.75;5012619;28;8922;-66
2022/07/03 03:48:37;;;;;;;;;5.75;4.50;;;;;18.64;58.01;101700.09;5013097;28;8812;-66
2022/07/03 03:51:04;;;;;;;;;4.00;4.00;;;;;18.66;57.97;101705.31;5011752;28;8867;-66
2022/07/03 03:53:31;;;;;;;;;3.50;3.50;;;;;18.66;58.22;101697.97;5007061;28;8840;-65
2022/07/03 03:56:01;;;;;;;;;6.33;4.33;;;;;18.69;58.35;101704.88;5016614;28;8946;-66
2022/07/03 03:58:29;;;;;;;;;4.00;3.50;;;;;18.67;58.09;101699.63;5003661;28;8927;-66
2022/07/03 04:01:01;;;;;;;;;3.67;3.67;;;;;18.69;58.29;101696.69;5006057;28;8828;-66
2022/07/03 04:03:29;;;;;;;;;4.00;4.00;;;;;18.68;58.21;101701.31;5010188;28;8919;-66
2022/07/03 04:05:56;;;;;;;;;3.75;3.00;;;;;18.66;58.52;101697.97;5015290;28;8907;-65
2022/07/03 04:08:23;;;;;;;;;6.75;4.00;;;;;18.63;58.55;101698.41;5012730;28;8809;-66
2022/07/03 04:10:50;;;;;;;;;2.75;2.75;;;;;18.60;58.62;101707.06;5011955;28;8971;-66
2022/07/03 04:13:19;;;;;;;;;3.00;2.00;;;;;18.60;58.76;101698.88;5006135;28;8854;-66
2022/07/03 04:15:46;;;;;;;;;3.75;3.75;;;;;18.58;58.99;101690.06;5009957;28;8843;-66
2022/07/03 04:18:13;;;;;;;;;1.50;1.00;;;;;18.57;58.73;101690.31;5014240;28;8866;-66
2022/07/03 04:20:39;;;;;;;;;4.25;2.00;;;;;18.53;59.32;101695.38;5019596;28;8976;-66
2022/07/03 04:23:06;;;;;;;;;2.00;2.00;;;;;18.50;59.15;101704.84;5034621;22;8920;-65
2022/07/03 04:25:32;;;;;;;;;3.00;2.00;;;;;18.48;59.46;101700.69;5042288;28;8964;-66
2022/07/03 04:27:59;;;;;;;;;3.00;2.00;;;;;18.47;59.46;101713.50;5049262;28;8815;-66
2022/07/03 04:30:46;;;;;;;;;2.25;2.25;;;;;18.45;59.26;101709.31;5036104;28;8853;-66
2022/07/03 04:33:12;;;;;;;;;2.25;2.00;;;;;18.45;59.40;101720.22;5024410;28;8862;-66
2022/07/03 04:35:39;;;;;;;;;2.00;2.00;;;;;18.47;59.33;101710.75;5018742;28;8903;-66
2022/07/03 04:38:05;;;;;;;;;2.50;2.00;;;;;18.50;59.65;101717.63;5001605;28;8918;-66
2022/07/03 04:40:32;;;;;;;;;4.00;3.50;;;;;18.52;59.86;101723.72;5008336;28;8957;-65
2022/07/03 04:42:58;;;;;;;;;3.25;3.25;;;;;18.49;59.48;101714.09;4995747;28;8847;-65
2022/07/03 04:45:25;;;;;;;;;3.50;2.25;;;;;18.49;59.64;101713.25;5000188;28;8862;-66
2022/07/03 04:47:51;;;;;;;;;2.25;2.25;;;;;18.48;59.82;101706.97;5004323;28;8843;-66
2022/07/03 04:50:18;;;;;;;;;2.33;2.33;;;;;18.48;60.07;101715.16;5016933;28;8849;-66
2022/07/03 04:52:44;;;;;;;;;2.75;2.75;;;;;18.46;59.84;101714.53;5006706;28;9007;-66
2022/07/03 04:55:12;;;;;;;;;3.00;3.00;;;;;18.48;59.85;101717.88;5001313;28;8839;-66
2022/07/03 04:57:38;;;;;;;;;1.50;1.50;;;;;18.50;60.08;101714.91;5019345;28;8813;-65
2022/07/03 05:00:06;;;;;;;;;3.75;2.75;;;;;18.49;59.83;101724.16;5001554;28;8917;-65
2022/07/03 05:02:32;;;;;;;;;3.00;3.00;;;;;18.49;60.09;101725.00;5007338;28;8857;-66
2022/07/03 05:04:59;;;;;;;;;2.25;2.25;;;;;18.50;60.10;101723.94;5010496;28;9019;-66
2022/07/03 05:07:25;;;;;;;;;2.00;2.00;;;;;18.52;59.98;101731.91;5005076;28;8831;-66
2022/07/03 05:09:52;;;;;;;;;1.00;1.00;;;;;18.54;60.28;101727.88;5004368;28;8842;-67
2022/07/03 05:12:18;;;;;;;;;2.75;2.75;;;;;18.57;60.24;101726.59;5030544;28;8829;-65
2022/07/03 05:14:44;;;;;;;;;1.75;1.75;;;;;18.60;60.32;101730.78;5008212;28;8848;-65
2022/07/03 05:17:11;;;;;;;;;3.25;2.00;;;;;18.59;60.28;101724.47;4998225;28;8857;-65
2022/07/03 05:19:38;;;;;;;;;2.00;2.00;;;;;18.59;60.22;101721.72;4997634;28;8860;-65
2022/07/03 05:22:04;;;;;;;;;1.50;1.50;;;;;18.58;60.86;101730.97;5009115;28;9589;-65
2022/07/03 05:24:31;;;;;;;;;1.00;1.00;;;;;18.55;60.91;101731.41;5008804;28;9606;-64
2022/07/03 05:26:57;;;;;;;;;2.00;1.50;;;;;18.56;60.96;101729.56;5002318;28;9561;-66
2022/07/03 05:29:24;;;;;;;;;1.00;1.00;;;;;18.56;61.30;101735.84;4994756;28;8873;-65
2022/07/03 05:31:50;;;;;;;;;2.50;1.00;;;;;18.61;61.27;101732.44;5011032;28;8828;-65
2022/07/03 05:34:16;;;;;;;;;1.00;1.00;;;;;18.62;61.18;101732.19;5011001;28;9563;-65
2022/07/03 05:36:43;;;;;;;;;1.75;1.75;;;;;18.65;61.31;101733.66;5015789;28;8817;-66
2022/07/03 05:39:32;;;;;;;;;1.00;1.00;;;;;18.66;61.30;101738.03;5017021;28;9701;-67
2022/07/03 05:41:58;;;;;;;;;1.50;1.00;;;;;18.77;62.03;101735.44;5016299;28;8837;-66
2022/07/03 05:44:27;;;;;;;;;0.75;0.75;;;;;18.85;61.34;101736.19;5006032;28;8847;-66
2022/07/03 05:46:53;;;;;;;;;0.00;0.00;;;;;18.88;61.62;101732.97;5002308;28;8852;-66
2022/07/03 05:49:20;;;;;;;;;0.00;0.00;;;;;19.00;61.61;101734.75;5011296;28;8816;-67
2022/07/03 05:51:46;;;;;;;;;0.00;0.00;;;;;19.20;61.52;101737.22;5015845;28;9010;-67
2022/07/03 05:54:13;;;;;;;;;1.00;1.00;;;;;19.38;60.93;101733.63;5018393;28;8869;-66
2022/07/03 05:56:39;;;;;;;;;0.75;0.25;;;;;19.54;60.49;101737.59;5015367;28;8892;-66
2022/07/03 05:59:06;;;;;;;;;1.50;0.50;;;;;19.66;59.91;101734.94;5008630;28;8813;-65
2022/07/03 06:01:32;;;;;;;;;1.00;1.00;;;;;19.75;59.72;101737.09;5013762;28;8851;-66
2022/07/03 06:03:59;;;;;;;;;1.00;1.00;;;;;19.88;59.43;101741.53;5001492;28;9527;-65
2022/07/03 06:06:28;;;;;;;;;2.75;0.00;;;;;19.93;59.09;101743.53;5003245;28;8825;-66
2022/07/03 06:08:55;;;;;;;;;0.25;0.25;;;;;19.92;59.06;101734.53;5034263;28;9501;-67
2022/07/03 06:11:21;;;;;;;;;1.25;1.25;;;;;19.91;59.18;101729.31;5017502;28;9015;-66
2022/07/03 06:13:48;;;;;;;;;1.00;0.00;;;;;19.89;59.26;101732.28;5011145;28;8915;-67
2022/07/03 06:16:14;;;;;;;;;0.75;0.75;;;;;19.89;59.35;101726.81;5000731;28;9587;-65
2022/07/03 06:18:41;;;;;;;;;0.00;0.00;;;;;19.88;59.32;101727.84;4990627;28;8913;-65
2022/07/03 06:21:07;;;;;;;;;2.00;0.25;;;;;19.86;59.01;101738.22;5003514;28;9585;-66
2022/07/03 06:23:37;;;;;;;;;1.50;0.75;;;;;19.86;59.14;101737.38;4998268;28;8951;-67
2022/07/03 06:26:14;;;;;;;;;0.50;0.50;;;;;19.85;59.23;101732.94;5012947;28;8838;-67
2022/07/03 06:28:41;;;;;;;;;1.75;1.00;;;;;19.84;59.32;101736.75;5008689;28;8834;-67
2022/07/03 06:31:08;;;;;;;;;2.50;2.50;;;;;19.81;59.32;101738.09;5010833;28;8840;-66
2022/07/03 06:33:35;;;;;;;;;0.25;0.25;;;;;19.82;59.51;101736.19;4991960;28;8843;-67
2022/07/03 06:36:01;;;;;;;;;1.00;1.00;;;;;19.80;59.41;101739.13;5006401;28;8844;-67
2022/07/03 06:38:28;;;;;;;;;1.50;0.00;;;;;19.74;59.38;101740.91;5008910;28;8837;-66
2022/07/03 06:40:54;;;;;;;;;0.50;0.50;;;;;19.71;59.33;101741.38;5008397;28;8891;-66
2022/07/03 06:43:21;;;;;;;;;0.00;0.00;;;;;19.74;59.37;101751.00;5010361;28;8855;-67
2022/07/03 06:45:47;;;;;;;;;1.25;1.25;;;;;19.73;59.33;101752.91;5016931;28;9536;-67
2022/07/03 06:48:14;;;;;;;;;1.00;1.00;;;;;19.71;59.12;101746.81;5026409;28;8853;-67
2022/07/03 06:50:40;;;;;;;;;1.25;1.25;;;;;19.71;59.32;101754.19;5005050;28;9687;-66
2022/07/03 06:53:07;;;;;;;;;1.00;1.00;;;;;19.72;59.46;101753.13;4990482;28;9568;-67
2022/07/03 06:55:33;;;;;;;;;1.00;1.00;;;;;19.78;59.61;101749.47;5002994;28;8927;-67
2022/07/03 06:58:00;;;;;;;;;1.00;1.00;;;;;19.77;59.73;101750.53;5012219;28;8949;-67
2022/07/03 07:00:26;;;;;;;;;3.00;1.75;;;;;19.71;59.81;101752.28;5009019;28;8844;-65
2022/07/03 07:02:53;;;;;;;;;2.00;2.00;;;;;19.74;59.67;101751.00;5014085;28;9617;-67
2022/07/03 07:05:25;;;;;;;;;1.75;1.25;;;;;19.75;59.29;101747.19;5009546;28;8840;-67
2022/07/03 07:07:51;;;;;;;;;1.75;1.00;;;;;19.77;59.30;101742.34;5009892;28;8848;-67
2022/07/03 07:10:18;;;;;;;;;1.00;1.00;;;;;19.81;59.21;101738.09;5008298;28;8948;-67
2022/07/03 07:12:44;;;;;;;;;2.50;1.25;;;;;19.81;59.06;101742.69;4992192;28;8844;-67
2022/07/03 07:15:11;;;;;;;;;1.25;1.25;;;;;19.84;59.29;101739.50;5017184;28;8842;-66
2022/07/03 07:17:37;;;;;;;;;1.75;1.00;;;;;19.90;59.20;101741.31;5005624;28;8994;-67
2022/07/03 07:20:04;;;;;;;;;0.75;0.75;;;;;19.91;59.31;101721.09;5010087;28;8861;-67
2022/07/03 07:22:31;;;;;;;;;1.00;1.00;;;;;19.97;59.26;101733.81;5013943;28;8821;-64
2022/07/03 07:24:57;;;;;;;;;1.00;1.00;;;;;19.99;59.23;101728.97;5013652;28;8911;-66
2022/07/03 07:27:24;;;;;;;;;2.75;2.00;;;;;20.09;59.36;101734.66;5004822;28;8851;-66
2022/07/03 07:29:51;;;;;;;;;1.25;1.25;;;;;20.12;59.16;101731.47;5013416;28;8935;-65
2022/07/03 07:32:17;;;;;;;;;1.75;1.75;;;;;20.15;59.02;101741.09;5020485;28;8849;-65
2022/07/03 07:34:44;;;;;;;;;1.25;1.00;;;;;20.12;58.59;101741.56;5013119;28;8856;-66
2022/07/03 07:37:10;;;;;;;;;1.75;1.75;;;;;20.02;57.57;101752.25;5013491;28;9511;-66
2022/07/03 07:39:36;;;;;;;;;2.00;2.00;;;;;19.97;58.15;101752.94;5012909;28;8910;-66
2022/07/03 07:42:03;;;;;;;;;0.75;0.75;;;;;20.01;58.52;101759.59;5013641;28;8828;-66
2022/07/03 07:44:30;;;;;;;;;2.00;2.00;;;;;20.07;58.47;101761.41;5007740;28;8963;-66
2022/07/03 07:46:56;;;;;;;;;2.00;2.00;;;;;20.10;58.08;101774.63;5011880;28;8848;-66
2022/07/03 07:49:23;;;;;;;;;1.50;0.75;;;;;20.04;57.08;101766.50;5013659;28;8837;-66
2022/07/03 07:51:49;;;;;;;;;0.50;0.50;;;;;20.03;56.73;101764.84;5021501;28;9031;-66
2022/07/03 07:54:16;;;;;;;;;2.00;2.00;;;;;20.04;57.05;101777.44;5012713;28;8876;-65
2022/07/03 07:56:42;;;;;;;;;1.25;1.25;;;;;20.11;57.42;101775.44;5015304;28;9004;-65
2022/07/03 07:59:08;;;;;;;;;2.00;2.00;;;;;20.24;57.56;101767.00;5023315;28;8957;-66
2022/07/03 08:07:05;;;;;;;;;1.00;1.00;;;;;20.25;58.09;101788.69;5028105;28;8883;-67
2022/07/03 08:09:32;;;;;;;;;0.50;0.25;;;;;20.31;58.10;101783.31;5012251;28;9634;-66
2022/07/03 08:11:58;;;;;;;;;0.75;0.75;;;;;20.28;57.91;101784.63;5011273;28;9548;-66
2022/07/03 08:14:24;;;;;;;;;2.25;1.75;;;;;20.17;58.17;101799.91;5014319;28;8833;-66
2022/07/03 08:16:51;;;;;;;;;1.75;1.75;;;;;20.15;57.80;101793.03;5012536;28;9538;-66
2022/07/03 08:19:18;;;;;;;;;2.00;0.25;;;;;20.24;57.75;101788.88;5012582;28;8820;-67
2022/07/03 08:21:44;;;;;;;;;1.00;1.00;;;;;20.31;57.57;101791.53;5017575;28;8865;-67
2022/07/03 08:24:12;;;;;;;;;2.00;2.00;;;;;20.35;57.38;101787.25;5012933;28;8861;-66
2022/07/03 08:26:39;;;;;;;;;1.00;1.00;;;;;20.31;57.02;101786.88;5011416;28;8843;-65
2022/07/03 08:29:05;;;;;;;;;4.00;2.25;;;;;20.22;57.12;101793.78;5012288;28;8817;-65
2022/07/03 08:31:32;;;;;;;;;3.00;1.75;;;;;20.17;57.36;101797.19;5012881;28;8809;-65
2022/07/03 08:33:58;;;;;;;;;0.75;0.75;;;;;20.13;57.75;101795.16;5012333;28;8828;-66
2022/07/03 08:36:25;;;;;;;;;2.00;2.00;;;;;20.18;57.97;101792.59;5022087;28;8812;-66
2022/07/03 08:38:51;;;;;;;;;1.50;1.00;;;;;20.24;58.10;101789.72;5023109;28;8825;-66
2022/07/03 08:41:19;;;;;;;;;0.50;0.50;;;;;20.34;58.13;101797.38;5027624;28;8837;-67
2022/07/03 08:43:49;;;;;;;;;3.00;2.50;;;;;20.37;57.81;101794.13;5012441;28;9629;-69
2022/07/03 08:46:16;;;;;;;;;1.00;1.00;;;;;20.42;57.44;101797.00;5012163;28;8833;-68
2022/07/03 08:48:44;;;;;;;;;1.25;1.25;;;;;20.47;57.23;101791.66;5012980;28;8939;-67
2022/07/03 08:51:11;;;;;;;;;1.00;1.00;;;;;20.56;56.66;101789.44;5012168;28;8829;-67
2022/07/03 08:53:39;;;;;;;;;1.00;1.00;;;;;20.61;56.35;101800.47;5011157;28;8845;-67
2022/07/03 08:56:08;;;;;;;;;1.75;1.75;;;;;20.56;56.42;101797.63;5012288;28;8825;-66
2022/07/03 08:58:35;;;;;;;;;1.00;1.00;;;;;20.54;56.59;101801.66;5011815;28;8825;-67
2022/07/03 09:01:02;;;;;;;;;1.00;1.00;;;;;20.54;56.32;101802.53;5009605;28;8859;-66
2022/07/03 09:03:31;;;;;;;;;1.50;1.50;;;;;20.54;55.95;101797.06;5035415;28;8857;-67
2022/07/03 09:05:58;;;;;;;;;1.00;1.00;;;;;20.60;55.79;101798.81;5025557;28;8915;-67
2022/07/03 09:08:27;;;;;;;;;2.00;1.25;;;;;20.70;55.73;101798.22;5030132;28;8854;-68
2022/07/03 09:10:56;;;;;;;;;0.75;0.75;;;;;20.83;55.69;101792.53;5019845;28;8872;-68
2022/07/03 09:13:22;;;;;;;;;1.25;1.00;;;;;20.85;55.52;101786.78;5023058;28;8846;-66
2022/07/03 09:15:48;;;;;;;;;1.50;1.50;;;;;20.87;55.09;101792.88;5015880;28;8828;-67
2022/07/03 09:18:15;;;;;;;;;1.00;1.00;;;;;20.77;55.07;101790.72;5011512;28;9645;-67
2022/07/03 09:20:43;;;;;;;;;1.00;1.00;;;;;20.83;55.19;101800.72;5011305;28;8947;-70
2022/07/03 09:23:15;;;;;;;;;1.00;1.00;;;;;20.88;55.02;101794.53;5011794;28;9725;-67
2022/07/03 09:25:54;;;;;;;;;1.25;1.00;;;;;21.00;54.80;101795.34;5032632;28;8825;-68
2022/07/03 09:28:22;;;;;;;;;3.25;2.00;;;;;21.04;54.19;101787.50;5028489;28;8896;-66
2022/07/03 09:31:00;;;;;;;;;2.00;2.00;;;;;21.00;54.02;101784.41;5021582;28;8911;-66
2022/07/03 09:33:26;;;;;;;;;1.00;1.00;;;;;21.02;54.17;101790.44;5025560;28;8840;-66
2022/07/03 09:35:54;;;;;;;;;1.25;1.25;;;;;21.03;54.26;101794.88;5016776;28;8959;-67
2022/07/03 09:38:22;;;;;;;;;1.50;1.00;;;;;21.03;54.07;101792.13;5028001;28;8830;-65
2022/07/03 09:40:54;;;;;;;;;1.00;1.00;;;;;21.11;53.87;101789.03;5014234;28;8907;-66
2022/07/03 09:43:30;;;;;;;;;1.75;1.75;;;;;21.13;53.49;101805.19;5011492;28;8894;-66
2022/07/03 09:45:59;;;;;;;;;1.00;1.00;;;;;21.11;53.60;101794.50;5011232;28;8832;-66
2022/07/03 09:48:29;;;;;;;;;1.00;1.00;;;;;21.17;53.65;101796.25;5010717;28;8817;-67
2022/07/03 09:51:23;;;;;;;;;1.00;1.00;;;;;21.18;53.06;101803.38;5018775;28;8847;-67
2022/07/03 09:53:54;;;;;;;;;1.00;1.00;;;;;21.11;53.49;101802.72;5006778;28;8910;-66
2022/07/03 09:56:38;;;;;;;;;1.00;1.00;;;;;21.11;53.24;101804.63;5010800;28;8833;-65
2022/07/03 09:59:12;;;;;;;;;0.25;0.25;;;;;21.09;53.31;101804.03;5030813;28;8850;-65
2022/07/03 10:01:41;;;;;;;;;1.00;1.00;;;;;21.03;53.57;101805.81;5015158;28;8877;-65
2022/07/03 10:04:11;;;;;;;;;0.25;0.25;;;;;21.05;53.24;101802.84;5019884;28;8852;-66
2022/07/03 10:06:57;;;;;;;;;1.00;1.00;;;;;21.11;53.46;101801.88;5030016;28;8814;-66
2022/07/03 10:09:34;;;;;;;;;1.00;0.25;;;;;21.19;52.92;101799.59;5026396;28;9578;-67
2022/07/03 10:12:03;;;;;;;;;3.75;2.00;;;;;21.28;52.94;101804.69;5010781;28;8929;-66
2022/07/03 10:14:31;;;;;;;;;1.00;1.00;;;;;21.30;53.10;101810.75;5010664;28;8865;-66
2022/07/03 10:16:59;;;;;;;;;0.75;0.50;;;;;21.27;53.20;101805.75;5009854;28;8821;-66
2022/07/03 10:19:27;;;;;;;;;1.00;1.00;;;;;21.23;53.01;101814.47;5017747;28;8825;-66
2022/07/03 10:22:21;;;;;;;;;0.75;0.75;;;;;21.19;53.07;101805.06;5023601;22;10734;-67
2022/07/03 10:24:48;;;;;;;;;0.75;0.00;;;;;21.11;53.39;101805.44;5030018;28;9018;-66
2022/07/03 10:27:14;;;;;;;;;2.00;2.00;;;;;21.06;53.40;101813.53;5020693;28;8991;-67
2022/07/03 10:29:42;;;;;;;;;2.75;1.75;;;;;21.03;53.41;101815.94;5019615;28;8860;-66
2022/07/03 10:32:11;;;;;;;;;0.00;0.00;;;;;21.00;53.21;101809.03;5022647;28;9665;-66
2022/07/03 10:34:38;;;;;;;;;0.25;0.25;;;;;20.98;53.18;101813.91;5015493;28;8873;-65
2022/07/03 10:37:05;;;;;;;;;0.75;0.75;;;;;20.91;53.31;101824.16;5004255;28;8903;-66
2022/07/03 10:39:49;;;;;;;;;0.25;0.25;;;;;20.88;53.32;101820.00;4995275;28;8826;-66
2022/07/03 10:45:12;;;;;;;;;2.00;1.75;;;;;20.69;53.16;101830.22;5003169;28;8806;-66
2022/07/03 10:47:47;;;;;;;;;2.00;1.00;;;;;20.70;53.66;101837.38;5003663;28;8843;-66
2022/07/03 10:50:19;;;;;;;;;0.25;0.25;;;;;20.69;53.60;101832.97;5018632;28;8916;-67
2022/07/03 10:52:46;;;;;;;;;0.25;0.25;;;;;20.64;53.32;101838.31;5010622;28;8822;-66
2022/07/03 10:55:15;;;;;;;;;0.00;0.00;;;;;20.59;53.49;101843.66;5009473;28;8911;-66
2022/07/03 10:57:59;;;;;;;;;1.00;1.00;;;;;20.57;53.45;101844.97;5005989;28;8824;-68
2022/07/03 11:00:25;;;;;;;;;1.50;0.50;;;;;20.46;53.24;101839.22;5015515;28;9530;-65
2022/07/03 11:02:52;;;;;;;;;1.75;1.00;;;;;20.36;53.26;101840.88;5023332;28;8847;-65
2022/07/03 11:05:20;;;;;;;;;0.75;0.75;;;;;20.39;53.83;101841.22;5017811;28;8858;-66
2022/07/03 11:07:50;;;;;;;;;0.75;0.75;;;;;20.45;54.08;101845.75;4987884;28;8845;-65
2022/07/03 11:10:16;;;;;;;;;1.00;1.00;;;;;20.55;54.10;101838.91;5008161;28;8861;-66
2022/07/03 11:12:55;;;;;;;;;1.50;1.50;;;;;20.64;53.91;101843.78;4996238;28;8856;-66
2022/07/03 11:15:41;;;;;;;;;1.00;1.00;;;;;20.71;53.50;101840.94;4990510;28;8902;-66
2022/07/03 11:18:27;;;;;;;;;0.00;0.00;;;;;20.87;52.59;101836.66;4988238;28;9668;-65
2022/07/03 11:20:54;;;;;;;;;0.00;0.00;;;;;21.04;52.49;101840.34;4993942;28;9528;-66
2022/07/03 11:23:29;;;;;;;;;0.50;0.50;;;;;21.11;52.05;101835.56;5008476;28;8964;-66
2022/07/03 11:26:00;;;;;;;;;1.00;1.00;;;;;21.16;51.52;101821.16;5016051;28;8967;-67
2022/07/03 11:28:32;;;;;;;;;0.50;0.50;;;;;21.20;51.59;101823.16;5007422;28;8847;-68
2022/07/03 11:31:18;;;;;;;;;1.00;1.00;;;;;21.23;51.24;101822.69;4999578;28;8828;-70
2022/07/03 11:33:51;;;;;;;;;1.00;1.00;;;;;21.33;51.48;101824.00;4990353;28;8841;-66
2022/07/03 11:36:19;;;;;;;;;1.00;1.00;;;;;21.40;51.03;101827.44;4997573;28;8850;-67
2022/07/03 11:39:05;;;;;;;;;0.50;0.50;;;;;21.39;51.06;101817.53;4999908;28;8829;-66
2022/07/03 11:41:34;;;;;;;;;0.75;0.75;;;;;21.45;51.05;101814.66;5005084;28;8814;-66
2022/07/03 11:44:03;;;;;;;;;1.00;1.00;;;;;21.57;51.07;101817.38;5000664;28;10349;-65
2022/07/03 11:46:35;;;;;;;;;1.00;1.00;;;;;21.69;50.78;101822.81;5006429;28;8838;-66
2022/07/03 11:49:09;;;;;;;;;0.00;0.00;;;;;21.65;50.43;101818.91;4983097;28;8830;-66
2022/07/03 11:51:37;;;;;;;;;0.00;0.00;;;;;21.61;50.58;101823.19;4983155;28;8826;-66
2022/07/03 11:54:05;;;;;;;;;1.00;0.50;;;;;21.58;50.79;101819.03;4981069;28;8844;-66
2022/07/03 11:56:33;;;;;;;;;0.75;0.75;;;;;21.50;51.30;101813.09;4999402;28;9529;-67